createdAt,value
2019-04-05T00:00:47.963Z,11.63
2019-04-05T00:03:53.118Z,11.27
2019-04-05T00:06:58.224Z,13.00
2019-04-05T00:10:03.433Z,11.00
2019-04-05T00:13:09.201Z,13.00
2019-04-05T00:16:14.538Z,12.90
2019-04-05T00:19:19.750Z,13.37
2019-04-05T00:22:24.987Z,15.30
2019-04-05T00:25:30.229Z,14.27
2019-04-05T00:28:35.620Z,14.07
2019-04-05T00:31:40.967Z,13.47
2019-04-05T00:34:46.218Z,15.23
2019-04-05T00:37:51.411Z,12.23
2019-04-05T00:40:56.874Z,13.57
2019-04-05T00:44:02.154Z,14.47
2019-04-05T00:47:07.502Z,13.67
2019-04-05T00:50:13.901Z,14.30
2019-04-05T00:53:19.032Z,16.57
2019-04-05T00:56:24.230Z,13.93
2019-04-05T00:59:29.531Z,13.27
2019-04-05T01:02:35.037Z,15.13
2019-04-05T01:05:40.166Z,13.97
2019-04-05T01:08:45.305Z,14.77
2019-04-05T01:11:50.533Z,15.53
2019-04-05T01:14:56.537Z,16.87
2019-04-05T01:18:01.982Z,13.70
2019-04-05T01:21:09.054Z,15.07
2019-04-05T01:24:15.538Z,14.30
2019-04-05T01:27:22.281Z,14.57
2019-04-05T01:30:27.435Z,15.37
2019-04-05T01:33:32.948Z,14.47
2019-04-05T01:36:38.128Z,13.13
2019-04-05T01:39:43.395Z,13.90
2019-04-05T01:42:48.756Z,14.07
2019-04-05T01:45:55.919Z,15.47
2019-04-05T01:49:03.382Z,16.53
2019-04-05T01:52:08.774Z,13.77
2019-04-05T01:55:14.702Z,12.20
2019-04-05T01:58:20.029Z,11.37
2019-04-05T02:01:25.132Z,13.00
2019-04-05T02:04:30.254Z,11.53
2019-04-05T02:07:35.714Z,13.33
2019-04-05T02:10:41.027Z,13.03
2019-04-05T02:13:46.145Z,14.70
2019-04-05T02:16:51.427Z,14.00
2019-04-05T02:19:56.699Z,12.07
2019-04-05T02:23:01.954Z,12.67
2019-04-05T02:26:07.160Z,14.27
2019-04-05T02:29:12.399Z,13.93
2019-04-05T02:32:17.540Z,13.23
2019-04-05T02:35:22.934Z,13.40
2019-04-05T02:38:28.195Z,13.10
2019-04-05T02:41:34.198Z,12.80
2019-04-05T02:44:41.050Z,13.30
2019-04-05T02:47:51.893Z,13.63
2019-04-05T02:51:00.198Z,14.30
2019-04-05T02:54:06.186Z,14.97
2019-04-05T02:57:12.320Z,12.77
2019-04-05T03:00:17.653Z,15.13
2019-04-05T03:03:23.054Z,14.23
2019-04-05T03:06:28.371Z,15.47
2019-04-05T03:09:34.388Z,12.33
2019-04-05T03:12:40.100Z,13.63
2019-04-05T03:15:45.675Z,11.87
2019-04-05T03:18:57.833Z,13.83
2019-04-05T03:22:06.086Z,14.57
2019-04-05T03:25:11.574Z,12.57
2019-04-05T03:28:17.049Z,11.90
2019-04-05T03:31:25.026Z,12.80
2019-04-05T03:34:29.343Z,12.37
2019-04-05T03:37:35.050Z,12.77
2019-04-05T03:40:40.172Z,12.40
2019-04-05T03:43:46.803Z,12.93
2019-04-05T03:46:57.183Z,12.57
2019-04-05T03:50:01.214Z,13.40
2019-04-05T03:53:07.036Z,12.43
2019-04-05T03:56:12.592Z,12.40
2019-04-05T03:59:18.124Z,11.60
2019-04-05T04:02:23.732Z,11.20
2019-04-05T04:05:29.301Z,13.77
2019-04-05T04:08:34.615Z,15.20
2019-04-05T04:11:39.930Z,12.97
2019-04-05T04:14:45.488Z,12.87
2019-04-05T04:17:50.930Z,13.03
2019-04-05T04:20:59.521Z,12.97
2019-04-05T04:24:05.166Z,12.50
2019-04-05T04:27:10.393Z,12.97
2019-04-05T04:30:16.293Z,12.30
2019-04-05T04:33:21.624Z,12.83
2019-04-05T04:36:27.177Z,11.80
2019-04-05T04:39:33.842Z,11.80
2019-04-05T04:42:39.114Z,12.30
2019-04-05T04:45:44.545Z,12.20
2019-04-05T04:48:49.968Z,15.10
2019-04-05T04:51:55.408Z,14.43
2019-04-05T04:55:00.675Z,13.63
2019-04-05T04:58:06.394Z,13.23
2019-04-05T05:01:11.520Z,14.93
2019-04-05T05:04:17.155Z,15.00
2019-04-05T05:07:22.302Z,13.73
2019-04-05T05:10:27.677Z,13.33
2019-04-05T05:13:34.266Z,12.43
2019-04-05T05:16:39.569Z,13.80
2019-04-05T05:19:45.143Z,13.40
2019-04-05T05:22:50.369Z,10.97
2019-04-05T05:25:55.695Z,12.43
2019-04-05T05:29:01.031Z,12.20
2019-04-05T05:32:09.582Z,13.10
2019-04-05T05:35:13.659Z,11.23
2019-04-05T05:38:19.107Z,10.83
2019-04-05T05:41:24.328Z,12.13
2019-04-05T05:44:30.736Z,13.33
2019-04-05T05:47:37.113Z,12.03
2019-04-05T05:50:42.593Z,11.83
2019-04-05T05:53:48.157Z,12.07
2019-04-05T05:56:53.368Z,14.20
2019-04-05T06:00:00.601Z,15.63
2019-04-05T06:03:06.414Z,14.60
2019-04-05T06:06:11.538Z,16.87
2019-04-05T06:09:16.847Z,14.53
2019-04-05T06:12:22.063Z,14.57
2019-04-05T06:15:27.342Z,14.30
2019-04-05T06:18:32.487Z,15.00
2019-04-05T06:21:37.590Z,13.97
2019-04-05T06:24:42.840Z,14.43
2019-04-05T06:27:48.051Z,15.47
2019-04-05T06:30:53.341Z,14.23
2019-04-05T06:33:59.584Z,15.83
2019-04-05T06:37:04.733Z,17.13
2019-04-05T06:40:09.943Z,14.83
2019-04-05T06:43:15.227Z,15.03
2019-04-05T06:46:20.453Z,12.67
2019-04-05T06:49:25.601Z,12.37
2019-04-05T06:52:30.820Z,15.60
2019-04-05T06:55:36.281Z,14.73
2019-04-05T06:58:41.392Z,15.50
2019-04-05T07:01:46.567Z,14.97
2019-04-05T07:04:51.806Z,17.03
2019-04-05T07:07:57.082Z,16.03
2019-04-05T07:11:02.329Z,16.30
2019-04-05T07:14:07.458Z,14.67
2019-04-05T07:17:12.610Z,14.97
2019-04-05T07:20:18.031Z,14.20
2019-04-05T07:23:23.411Z,14.73
2019-04-05T07:26:28.556Z,16.50
2019-04-05T07:29:33.754Z,13.57
2019-04-05T07:32:38.851Z,16.53
2019-04-05T07:35:44.074Z,19.03
2019-04-05T07:38:49.289Z,16.23
2019-04-05T07:41:54.426Z,16.60
2019-04-05T07:44:59.553Z,15.17
2019-04-05T07:48:04.772Z,14.77
2019-04-05T07:51:09.975Z,14.30
2019-04-05T07:54:15.067Z,15.43
2019-04-05T07:57:20.429Z,13.93
2019-04-05T08:01:00.059Z,14.07
2019-04-05T08:04:05.569Z,12.93
2019-04-05T08:07:11.473Z,15.13
2019-04-05T08:10:16.904Z,14.77
2019-04-05T08:13:24.241Z,12.23
2019-04-05T08:16:30.673Z,14.97
2019-04-05T08:19:35.947Z,14.73
2019-04-05T08:22:41.168Z,13.37
2019-04-05T08:25:46.408Z,14.40
2019-04-05T08:28:51.549Z,14.47
2019-04-05T08:31:56.694Z,15.70
2019-04-05T08:35:01.854Z,15.03
2019-04-05T08:38:07.015Z,15.67
2019-04-05T08:41:12.170Z,15.13
2019-04-05T08:44:17.353Z,16.10
2019-04-05T08:47:22.747Z,14.20
2019-04-05T08:50:28.017Z,13.30
2019-04-05T08:53:33.160Z,15.23
2019-04-05T08:56:38.337Z,13.77
2019-04-05T08:59:43.536Z,13.73
2019-04-05T09:02:49.333Z,13.77
2019-04-05T09:44:25.700Z,15.63
2019-04-05T09:47:30.819Z,12.63
2019-04-05T09:50:36.067Z,11.53
2019-04-05T09:53:41.262Z,12.33
2019-04-05T09:56:46.455Z,13.63
2019-04-05T09:59:51.541Z,12.50
2019-04-05T10:02:56.722Z,12.73
2019-04-05T10:06:03.162Z,11.13
2019-04-05T10:09:09.177Z,12.10
2019-04-05T10:12:14.341Z,12.63
2019-04-05T10:15:21.738Z,13.67
2019-04-05T10:18:26.524Z,16.40
2019-04-05T10:21:31.723Z,16.17
2019-04-05T10:24:36.872Z,14.30
2019-04-05T10:27:42.154Z,13.37
2019-04-05T10:30:47.484Z,16.90
2019-04-05T10:33:52.632Z,15.50
2019-04-05T10:36:57.765Z,13.07
2019-04-05T10:40:02.943Z,13.00
2019-04-05T10:43:08.317Z,13.43
2019-04-05T10:46:13.512Z,11.27
2019-04-05T10:49:18.741Z,15.10
2019-04-05T10:52:23.967Z,12.70
2019-04-05T10:55:29.030Z,13.13
2019-04-05T10:58:34.207Z,15.40
2019-04-05T13:57:40.888Z,16.97
2019-04-05T14:00:48.317Z,14.00
2019-04-05T14:08:10.299Z,15.83
2019-04-05T14:11:13.530Z,15.23
2019-04-05T14:14:18.738Z,15.87
2019-04-05T14:17:24.127Z,20.53
2019-04-05T14:20:29.295Z,16.87
2019-04-05T14:23:34.455Z,16.83
2019-04-05T14:26:39.661Z,15.80
2019-04-05T14:29:47.562Z,17.37
2019-04-05T14:46:12.612Z,20.33
2019-04-05T14:49:17.837Z,21.27
2019-04-05T14:52:25.503Z,17.57
2019-04-05T14:55:30.583Z,18.53
2019-04-05T14:58:35.867Z,17.60
2019-04-05T15:01:41.072Z,18.80
2019-04-05T15:04:46.218Z,21.77
2019-04-05T15:07:52.027Z,24.50
2019-04-05T15:10:58.313Z,19.00
2019-04-05T15:14:03.558Z,25.10
2019-04-05T15:17:08.745Z,19.90
2019-04-05T15:20:14.426Z,17.57
2019-04-05T15:23:19.610Z,20.73
2019-04-05T15:26:24.866Z,21.67
2019-04-05T15:29:30.956Z,18.57
2019-04-05T15:32:37.265Z,19.97
2019-04-05T15:35:42.425Z,19.90
2019-04-05T15:38:47.692Z,17.40
2019-04-05T15:41:52.907Z,18.83
2019-04-05T15:44:58.145Z,17.87
2019-04-05T15:48:03.383Z,19.13
2019-04-05T15:51:08.667Z,21.37
2019-04-05T15:54:13.917Z,21.70
2019-04-05T15:57:19.123Z,22.73
2019-04-05T16:00:40.452Z,22.00
2019-04-05T16:03:45.692Z,21.20
2019-04-05T16:06:50.912Z,27.93
2019-04-05T16:09:56.102Z,30.77
2019-04-05T16:13:01.339Z,24.33
2019-04-05T16:16:06.542Z,31.57
2019-04-05T16:19:11.727Z,20.17
2019-04-05T16:22:16.938Z,21.20
2019-04-05T16:25:22.184Z,22.13
2019-04-05T16:28:27.405Z,22.33
2019-04-05T16:31:32.839Z,27.33
2019-04-05T16:34:38.099Z,21.40
2019-04-05T16:37:43.340Z,26.47
2019-04-05T16:40:48.636Z,29.97
2019-04-05T16:43:53.841Z,29.40
2019-04-05T16:46:59.145Z,31.13
2019-04-05T16:50:04.886Z,41.60
2019-04-05T16:53:10.081Z,27.37
2019-04-05T16:56:15.302Z,24.93
2019-04-05T16:59:20.583Z,22.77
2019-04-05T17:02:25.831Z,24.10
2019-04-05T17:05:32.058Z,25.73
2019-04-05T17:08:37.323Z,27.87
2019-04-05T17:11:42.413Z,22.17
2019-04-05T17:14:48.186Z,24.57
2019-04-05T17:17:53.453Z,22.87
2019-04-05T17:20:58.707Z,24.17
2019-04-05T17:24:03.888Z,26.50
2019-04-05T17:27:09.125Z,27.83
2019-04-05T17:30:14.545Z,25.73
2019-04-05T17:33:19.742Z,29.47
2019-04-05T17:36:25.006Z,25.63
2019-04-05T17:39:30.219Z,24.70
2019-04-05T17:42:35.366Z,23.33
2019-04-05T17:45:40.507Z,24.50
2019-04-05T17:48:45.714Z,24.10
2019-04-05T17:51:50.980Z,25.10
2019-04-05T17:54:56.109Z,34.90
2019-04-05T17:58:02.950Z,39.07
2019-04-05T18:01:08.139Z,37.17
2019-04-05T18:04:13.310Z,29.50
2019-04-05T18:07:18.533Z,26.13
2019-04-05T18:10:24.890Z,25.30
2019-04-05T18:13:30.008Z,28.77
2019-04-05T18:16:35.280Z,33.97
2019-04-05T18:19:40.504Z,25.07
2019-04-05T18:22:45.767Z,21.87
2019-04-05T18:25:51.052Z,20.70
2019-04-05T18:28:56.235Z,20.80
2019-04-05T18:32:01.503Z,22.37
2019-04-05T18:35:07.957Z,21.97
2019-04-05T18:38:13.228Z,21.53
2019-04-05T18:41:18.382Z,21.73
2019-04-05T18:44:23.762Z,22.10
2019-04-05T18:47:28.980Z,23.90
2019-04-05T18:50:34.236Z,25.93
2019-04-05T18:53:39.456Z,45.90
2019-04-05T18:56:44.648Z,28.27
2019-04-05T18:59:49.835Z,22.00
2019-04-05T19:02:55.112Z,22.33
2019-04-05T19:06:00.300Z,22.53
2019-04-05T19:09:07.417Z,24.60
2019-04-05T19:12:14.204Z,24.00
2019-04-05T19:15:19.451Z,25.53
2019-04-05T19:18:24.700Z,27.90
2019-04-05T19:21:29.953Z,26.67
2019-04-05T19:24:35.082Z,23.20
2019-04-05T19:27:40.396Z,23.63
2019-04-05T19:49:30.969Z,23.30
2019-04-05T19:52:36.087Z,25.90
2019-04-05T19:55:41.324Z,23.63
2019-04-05T19:58:46.514Z,22.57
2019-04-05T20:01:51.677Z,23.67
2019-04-05T20:04:56.942Z,21.70
2019-04-05T20:08:02.172Z,21.43
2019-04-05T20:11:07.449Z,22.50
2019-04-05T20:14:12.612Z,22.30
2019-04-05T20:17:17.887Z,21.07
2019-04-05T20:20:23.075Z,20.07
2019-04-05T20:23:28.387Z,20.80
2019-04-05T20:26:33.559Z,20.97
2019-04-05T20:29:38.829Z,18.73
2019-04-05T20:32:44.124Z,20.43
2019-04-05T20:35:49.491Z,20.40
2019-04-05T20:38:54.629Z,19.23
2019-04-05T20:41:59.914Z,20.73
2019-04-05T20:45:06.304Z,19.97
2019-04-05T20:48:11.445Z,21.47
2019-04-05T20:51:16.522Z,22.03
2019-04-05T20:54:24.798Z,23.07
2019-04-05T20:57:28.626Z,21.40
2019-04-05T21:00:33.746Z,21.70
2019-04-05T21:03:38.933Z,20.93
2019-04-05T21:06:44.284Z,21.03
2019-04-05T21:09:49.768Z,21.90
2019-04-05T21:12:54.972Z,20.93
2019-04-05T21:16:00.193Z,21.47
2019-04-05T21:19:05.417Z,22.67
2019-04-05T21:22:10.588Z,21.03
2019-04-05T21:25:15.772Z,20.70
2019-04-05T21:28:20.964Z,19.77
2019-04-05T21:31:26.249Z,21.70
2019-04-05T21:34:31.460Z,23.87
2019-04-05T21:37:36.639Z,22.37
2019-04-05T21:40:41.773Z,22.13
2019-04-05T21:43:47.122Z,22.77
2019-04-05T21:46:52.376Z,24.93
2019-04-05T21:49:57.631Z,21.53
2019-04-05T21:53:02.792Z,24.13
2019-04-05T21:56:11.868Z,22.77
2019-04-05T21:59:18.661Z,21.33
2019-04-05T22:02:23.831Z,22.57
2019-04-05T22:05:29.053Z,19.17
2019-04-05T22:08:34.311Z,23.43
2019-04-05T22:11:39.487Z,16.80
2019-04-05T22:14:44.659Z,19.83
2019-04-05T22:17:49.786Z,23.30
2019-04-05T22:20:55.021Z,17.77
2019-04-05T22:24:00.225Z,20.47
2019-04-05T22:27:05.428Z,18.87
2019-04-05T22:30:11.347Z,20.23
2019-04-05T22:33:16.563Z,21.57
2019-04-05T22:36:21.744Z,22.43
2019-04-05T22:39:26.905Z,31.27
2019-04-05T22:42:32.051Z,22.27
2019-04-05T22:45:37.355Z,25.03
2019-04-05T22:48:42.523Z,25.73
2019-04-05T22:51:47.672Z,24.63
2019-04-05T22:54:52.822Z,21.30
2019-04-05T22:57:58.054Z,19.80
2019-04-05T23:01:03.205Z,24.47
2019-04-05T23:04:08.523Z,21.87
2019-04-05T23:07:13.694Z,18.27
2019-04-05T23:10:18.796Z,21.00
2019-04-05T23:13:23.981Z,19.87
2019-04-05T23:16:30.150Z,21.80
2019-04-05T23:19:35.377Z,23.37
2019-04-05T23:22:40.569Z,21.13
2019-04-05T23:25:45.785Z,20.23
2019-04-05T23:28:50.930Z,19.33
2019-04-05T23:31:56.228Z,21.77
2019-04-05T23:35:01.470Z,23.60
2019-04-05T23:38:06.589Z,20.97
2019-04-05T23:41:11.732Z,20.77
2019-04-05T23:44:16.881Z,24.37
2019-04-05T23:47:22.222Z,27.60
2019-04-05T23:50:27.463Z,26.77
2019-04-05T23:53:32.589Z,24.70
2019-04-05T23:56:37.821Z,22.50
2019-04-05T23:59:43.087Z,22.30
